sensor_id;sensor_type;location;lat;lon;timestamp;pressure;altitude;pressure_sealevel;temperature;humidity
12801;BME280;6464;42.494;27.470;2023-04-27T04:02:17;99958.97;;;8.78;100.00
12801;BME280;6464;42.494;27.470;2023-04-27T04:07:36;100045.41;;;9.30;100.00
12801;BME280;6464;42.494;27.470;2023-04-27T04:10:09;99857.88;;;8.15;100.00
12801;BME280;6464;42.494;27.470;2023-04-27T04:12:39;99845.34;;;8.28;100.00
12801;BME280;6464;42.494;27.470;2023-04-27T04:15:13;99848.50;;;8.43;100.00
12801;BME280;6464;42.494;27.470;2023-04-27T04:17:57;100094.25;;;9.77;100.00
12801;BME280;6464;42.494;27.470;2023-04-27T04:20:29;100115.03;;;9.88;100.00
12801;BME280;6464;42.494;27.470;2023-04-27T04:23:04;99940.78;;;9.04;100.00
12801;BME280;6464;42.494;27.470;2023-04-27T04:25:50;99870.38;;;8.81;100.00
12801;BME280;6464;42.494;27.470;2023-04-27T04:28:21;100003.19;;;9.69;100.00
12801;BME280;6464;42.494;27.470;2023-04-27T04:33:30;99943.59;;;9.32;100.00
12801;BME280;6464;42.494;27.470;2023-04-27T04:41:45;99983.22;;;9.60;100.00
12801;BME280;6464;42.494;27.470;2023-04-27T04:44:28;100074.09;;;10.09;100.00
12801;BME280;6464;42.494;27.470;2023-04-27T04:49:51;100183.94;;;10.75;100.00
12801;BME280;6464;42.494;27.470;2023-04-27T04:52:19;100128.16;;;10.25;100.00
12801;BME280;6464;42.494;27.470;2023-04-27T04:54:50;100075.47;;;9.91;100.00
12801;BME280;6464;42.494;27.470;2023-04-27T05:02:28;100262.22;;;11.37;100.00
12801;BME280;6464;42.494;27.470;2023-04-27T05:08:20;100210.41;;;11.03;100.00
12801;BME280;6464;42.494;27.470;2023-04-27T05:10:50;100269.88;;;11.76;100.00
12801;BME280;6464;42.494;27.470;2023-04-27T05:13:18;100292.91;;;11.71;100.00
12801;BME280;6464;42.494;27.470;2023-04-27T05:15:46;100108.66;;;10.64;100.00
12801;BME280;6464;42.494;27.470;2023-04-27T05:18:14;100081.91;;;10.46;100.00
12801;BME280;6464;42.494;27.470;2023-04-27T05:20:41;100279.72;;;11.41;100.00
12801;BME280;6464;42.494;27.470;2023-04-27T05:23:09;100263.88;;;11.41;100.00
12801;BME280;6464;42.494;27.470;2023-04-27T05:25:37;100254.84;;;11.48;100.00
12801;BME280;6464;42.494;27.470;2023-04-27T05:28:07;100330.56;;;11.77;100.00
12801;BME280;6464;42.494;27.470;2023-04-27T05:30:35;100329.56;;;11.83;100.00
12801;BME280;6464;42.494;27.470;2023-04-27T05:33:02;100191.09;;;11.01;100.00
12801;BME280;6464;42.494;27.470;2023-04-27T05:35:30;100183.94;;;10.75;100.00
12801;BME280;6464;42.494;27.470;2023-04-27T05:37:57;100157.59;;;10.74;100.00
12801;BME280;6464;42.494;27.470;2023-04-27T05:40:25;100272.47;;;11.48;100.00
12801;BME280;6464;42.494;27.470;2023-04-27T05:42:54;100132.28;;;10.67;100.00
12801;BME280;6464;42.494;27.470;2023-04-27T05:45:22;100326.16;;;11.78;100.00
12801;BME280;6464;42.494;27.470;2023-04-27T05:47:51;100144.59;;;10.97;100.00
12801;BME280;6464;42.494;27.470;2023-04-27T05:50:19;100338.47;;;12.08;100.00
12801;BME280;6464;42.494;27.470;2023-04-27T05:52:46;100347.66;;;12.25;100.00
12801;BME280;6464;42.494;27.470;2023-04-27T05:55:14;100237.75;;;11.60;100.00
12801;BME280;6464;42.494;27.470;2023-04-27T05:57:42;100372.19;;;12.30;100.00
12801;BME280;6464;42.494;27.470;2023-04-27T06:00:12;100327.50;;;11.93;100.00
12801;BME280;6464;42.494;27.470;2023-04-27T06:02:40;100253.72;;;11.55;100.00
12801;BME280;6464;42.494;27.470;2023-04-27T06:05:08;100369.72;;;11.96;100.00
12801;BME280;6464;42.494;27.470;2023-04-27T06:07:35;100418.59;;;12.11;100.00
12801;BME280;6464;42.494;27.470;2023-04-27T06:10:03;100271.91;;;11.37;100.00
12801;BME280;6464;42.494;27.470;2023-04-27T06:12:31;100395.81;;;12.06;100.00
12801;BME280;6464;42.494;27.470;2023-04-27T06:14:58;100332.69;;;11.66;100.00
12801;BME280;6464;42.494;27.470;2023-04-27T06:17:29;100481.50;;;12.29;100.00
12801;BME280;6464;42.494;27.470;2023-04-27T06:19:56;100408.81;;;11.83;100.00
12801;BME280;6464;42.494;27.470;2023-04-27T06:22:24;100307.44;;;11.25;100.00
12801;BME280;6464;42.494;27.470;2023-04-27T06:24:51;100534.28;;;12.32;100.00
12801;BME280;6464;42.494;27.470;2023-04-27T06:27:19;100491.13;;;12.31;100.00
12801;BME280;6464;42.494;27.470;2023-04-27T06:29:46;100334.00;;;11.51;100.00
12801;BME280;6464;42.494;27.470;2023-04-27T06:32:13;100528.22;;;12.59;100.00
12801;BME280;6464;42.494;27.470;2023-04-27T06:34:42;100542.38;;;12.57;100.00
12801;BME280;6464;42.494;27.470;2023-04-27T06:37:09;100328.03;;;11.43;100.00
12801;BME280;6464;42.494;27.470;2023-04-27T06:39:37;100361.84;;;11.62;100.00
12801;BME280;6464;42.494;27.470;2023-04-27T06:42:04;100432.28;;;12.25;100.00
12801;BME280;6464;42.494;27.470;2023-04-27T06:44:31;100467.81;;;12.74;100.00
12801;BME280;6464;42.494;27.470;2023-04-27T06:46:59;100555.63;;;13.15;100.00
12801;BME280;6464;42.494;27.470;2023-04-27T06:49:29;100447.16;;;12.29;100.00
12801;BME280;6464;42.494;27.470;2023-04-27T06:51:57;100571.31;;;13.22;100.00
12801;BME280;6464;42.494;27.470;2023-04-27T06:54:27;100507.84;;;12.61;100.00
12801;BME280;6464;42.494;27.470;2023-04-27T06:56:54;100544.72;;;12.97;100.00
12801;BME280;6464;42.494;27.470;2023-04-27T06:59:21;100644.25;;;13.03;100.00
12801;BME280;6464;42.494;27.470;2023-04-27T07:01:49;100620.34;;;13.06;100.00
12801;BME280;6464;42.494;27.470;2023-04-27T07:04:16;100423.69;;;11.87;100.00
12801;BME280;6464;42.494;27.470;2023-04-27T07:06:43;100596.72;;;13.28;100.00
12801;BME280;6464;42.494;27.470;2023-04-27T07:09:13;100552.31;;;13.08;100.00
12801;BME280;6464;42.494;27.470;2023-04-27T07:11:41;100412.84;;;12.26;100.00
12801;BME280;6464;42.494;27.470;2023-04-27T07:14:11;100583.63;;;13.23;100.00
12801;BME280;6464;42.494;27.470;2023-04-27T07:16:38;100499.56;;;12.74;100.00
12801;BME280;6464;42.494;27.470;2023-04-27T07:19:09;100576.69;;;13.74;100.00
12801;BME280;6464;42.494;27.470;2023-04-27T07:21:37;100450.09;;;12.76;100.00
12801;BME280;6464;42.494;27.470;2023-04-27T07:24:05;100534.56;;;13.10;100.00
12801;BME280;6464;42.494;27.470;2023-04-27T07:26:34;100390.72;;;12.00;100.00
12801;BME280;6464;42.494;27.470;2023-04-27T07:29:02;100446.25;;;12.58;100.00
12801;BME280;6464;42.494;27.470;2023-04-27T07:31:31;100583.25;;;13.35;100.00
12801;BME280;6464;42.494;27.470;2023-04-27T07:34:00;100633.00;;;13.80;100.00
12801;BME280;6464;42.494;27.470;2023-04-27T07:36:33;100602.38;;;13.72;100.00
12801;BME280;6464;42.494;27.470;2023-04-27T07:39:05;100498.50;;;13.07;100.00
12801;BME280;6464;42.494;27.470;2023-04-27T07:41:50;100565.78;;;13.56;100.00
12801;BME280;6464;42.494;27.470;2023-04-27T07:44:23;100577.59;;;13.73;100.00
12801;BME280;6464;42.494;27.470;2023-04-27T07:46:52;100520.22;;;13.72;100.00
12801;BME280;6464;42.494;27.470;2023-04-27T07:49:25;100468.34;;;13.11;100.00
12801;BME280;6464;42.494;27.470;2023-04-27T07:51:56;100703.81;;;13.18;100.00
12801;BME280;6464;42.494;27.470;2023-04-27T07:54:28;101003.97;;;14.47;100.00
12801;BME280;6464;42.494;27.470;2023-04-27T07:57:00;101083.97;;;14.33;100.00
12801;BME280;6464;42.494;27.470;2023-04-27T07:59:31;100939.09;;;12.99;100.00
12801;BME280;6464;42.494;27.470;2023-04-27T08:02:22;101023.09;;;13.98;100.00
12801;BME280;6464;42.494;27.470;2023-04-27T08:05:00;101006.47;;;13.91;100.00
12801;BME280;6464;42.494;27.470;2023-04-27T08:07:43;101050.75;;;13.87;100.00
12801;BME280;6464;42.494;27.470;2023-04-27T08:10:24;101212.50;;;14.57;100.00
12801;BME280;6464;42.494;27.470;2023-04-27T08:12:59;101202.19;;;14.78;100.00
12801;BME280;6464;42.494;27.470;2023-04-27T08:15:48;101263.50;;;15.01;100.00
12801;BME280;6464;42.494;27.470;2023-04-27T08:18:28;101382.13;;;15.97;100.00
12801;BME280;6464;42.494;27.470;2023-04-27T08:20:59;101248.97;;;15.14;100.00
12801;BME280;6464;42.494;27.470;2023-04-27T08:23:33;101429.81;;;16.33;100.00
12801;BME280;6464;42.494;27.470;2023-04-27T08:28:52;101314.44;;;15.78;100.00
12801;BME280;6464;42.494;27.470;2023-04-27T08:31:24;101326.91;;;15.76;100.00
12801;BME280;6464;42.494;27.470;2023-04-27T08:33:59;101506.19;;;17.16;100.00
12801;BME280;6464;42.494;27.470;2023-04-27T08:36:30;101460.56;;;16.99;100.00
12801;BME280;6464;42.494;27.470;2023-04-27T08:39:28;101516.84;;;17.43;100.00
12801;BME280;6464;42.494;27.470;2023-04-27T08:42:04;101372.41;;;16.52;100.00
12801;BME280;6464;42.494;27.470;2023-04-27T08:44:56;101357.59;;;16.72;100.00
12801;BME280;6464;42.494;27.470;2023-04-27T08:47:40;101442.72;;;17.28;100.00
12801;BME280;6464;42.494;27.470;2023-04-27T08:50:15;101517.88;;;17.39;100.00
12801;BME280;6464;42.494;27.470;2023-04-27T08:52:59;101482.38;;;17.12;100.00
12801;BME280;6464;42.494;27.470;2023-04-27T08:55:28;101466.00;;;17.47;100.00
12801;BME280;6464;42.494;27.470;2023-04-27T08:58:04;101532.06;;;17.66;100.00
12801;BME280;6464;42.494;27.470;2023-04-27T09:00:43;101365.41;;;16.50;100.00
12801;BME280;6464;42.494;27.470;2023-04-27T09:03:24;101429.25;;;16.79;100.00
12801;BME280;6464;42.494;27.470;2023-04-27T09:05:52;101401.63;;;16.82;100.00
12801;BME280;6464;42.494;27.470;2023-04-27T09:08:20;101384.63;;;16.58;100.00
12801;BME280;6464;42.494;27.470;2023-04-27T09:10:49;101521.56;;;17.61;100.00
12801;BME280;6464;42.494;27.470;2023-04-27T09:13:17;101594.00;;;18.01;100.00
12801;BME280;6464;42.494;27.470;2023-04-27T09:15:47;101396.59;;;16.73;100.00
12801;BME280;6464;42.494;27.470;2023-04-27T09:18:16;101525.88;;;18.39;100.00
12801;BME280;6464;42.494;27.470;2023-04-27T09:20:45;101434.16;;;17.93;100.00
12801;BME280;6464;42.494;27.470;2023-04-27T09:23:27;101575.94;;;19.03;100.00
12801;BME280;6464;42.494;27.470;2023-04-27T09:25:55;101480.28;;;18.65;100.00
12801;BME280;6464;42.494;27.470;2023-04-27T09:28:24;101569.94;;;19.62;100.00
12801;BME280;6464;42.494;27.470;2023-04-27T09:30:56;101581.41;;;19.86;100.00
12801;BME280;6464;42.494;27.470;2023-04-27T09:33:24;101564.41;;;20.07;100.00
12801;BME280;6464;42.494;27.470;2023-04-27T09:35:59;101649.88;;;21.11;100.00
12801;BME280;6464;42.494;27.470;2023-04-27T09:38:29;101606.72;;;21.53;100.00
12801;BME280;6464;42.494;27.470;2023-04-27T09:40:58;101597.59;;;21.38;100.00
12801;BME280;6464;42.494;27.470;2023-04-27T09:43:25;101626.28;;;23.54;100.00
12801;BME280;6464;42.494;27.470;2023-04-27T09:45:55;101641.22;;;24.50;100.00
12801;BME280;6464;42.494;27.470;2023-04-27T09:48:23;101740.91;;;26.47;100.00
12801;BME280;6464;42.494;27.470;2023-04-27T09:50:51;101720.91;;;25.27;100.00
12801;BME280;6464;42.494;27.470;2023-04-27T09:53:20;101730.84;;;27.00;100.00
12801;BME280;6464;42.494;27.470;2023-04-27T09:55:56;101693.06;;;25.68;100.00
12801;BME280;6464;42.494;27.470;2023-04-27T09:58:58;101715.66;;;25.52;100.00
12801;BME280;6464;42.494;27.470;2023-04-27T10:01:36;101733.13;;;27.19;100.00
12801;BME280;6464;42.494;27.470;2023-04-27T10:04:13;101750.22;;;27.56;100.00
12801;BME280;6464;42.494;27.470;2023-04-27T10:07:06;101736.75;;;26.41;100.00
12801;BME280;6464;42.494;27.470;2023-04-27T10:09:39;101652.25;;;25.31;100.00
12801;BME280;6464;42.494;27.470;2023-04-27T10:12:14;101700.13;;;26.10;100.00
12801;BME280;6464;42.494;27.470;2023-04-27T10:14:49;101705.66;;;25.81;100.00
12801;BME280;6464;42.494;27.470;2023-04-27T10:17:22;101704.59;;;25.43;100.00
12801;BME280;6464;42.494;27.470;2023-04-27T10:19:54;101684.00;;;24.56;100.00
12801;BME280;6464;42.494;27.470;2023-04-27T10:22:21;101690.53;;;25.23;100.00
12801;BME280;6464;42.494;27.470;2023-04-27T10:24:49;101628.59;;;25.61;100.00
12801;BME280;6464;42.494;27.470;2023-04-27T10:27:18;101734.47;;;25.95;98.94
12801;BME280;6464;42.494;27.470;2023-04-27T10:29:47;101672.81;;;25.60;100.00
12801;BME280;6464;42.494;27.470;2023-04-27T10:32:20;101725.22;;;26.12;100.00
12801;BME280;6464;42.494;27.470;2023-04-27T10:34:48;101708.78;;;25.75;100.00
12801;BME280;6464;42.494;27.470;2023-04-27T10:37:17;101692.28;;;25.66;98.83
12801;BME280;6464;42.494;27.470;2023-04-27T10:39:46;101637.19;;;24.43;100.00
12801;BME280;6464;42.494;27.470;2023-04-27T10:42:13;101673.56;;;24.05;100.00
12801;BME280;6464;42.494;27.470;2023-04-27T10:44:40;101577.38;;;22.68;100.00
12801;BME280;6464;42.494;27.470;2023-04-27T10:47:15;101648.66;;;22.75;100.00
12801;BME280;6464;42.494;27.470;2023-04-27T10:49:45;101652.78;;;22.82;100.00
12801;BME280;6464;42.494;27.470;2023-04-27T10:52:12;101669.03;;;24.36;100.00
12801;BME280;6464;42.494;27.470;2023-04-27T10:54:44;101654.59;;;23.77;100.00
12801;BME280;6464;42.494;27.470;2023-04-27T10:57:12;101692.66;;;24.75;100.00
12801;BME280;6464;42.494;27.470;2023-04-27T10:59:47;101716.88;;;25.75;100.00
12801;BME280;6464;42.494;27.470;2023-04-27T11:02:15;101735.38;;;27.12;97.92
12801;BME280;6464;42.494;27.470;2023-04-27T11:04:42;101770.09;;;27.93;90.11
12801;BME280;6464;42.494;27.470;2023-04-27T11:07:10;101783.59;;;28.06;85.46
12801;BME280;6464;42.494;27.470;2023-04-27T11:09:38;101704.09;;;26.82;89.91
12801;BME280;6464;42.494;27.470;2023-04-27T11:12:06;101782.41;;;28.91;84.97
12801;BME280;6464;42.494;27.470;2023-04-27T11:14:33;101772.59;;;28.31;81.24
12801;BME280;6464;42.494;27.470;2023-04-27T11:17:01;101788.31;;;28.85;80.82
12801;BME280;6464;42.494;27.470;2023-04-27T11:19:28;101809.63;;;29.36;76.09
12801;BME280;6464;42.494;27.470;2023-04-27T11:22:02;101802.84;;;29.42;76.91
12801;BME280;6464;42.494;27.470;2023-04-27T11:24:30;101751.34;;;29.18;77.34
12801;BME280;6464;42.494;27.470;2023-04-27T11:26:58;101793.22;;;29.60;77.33
12801;BME280;6464;42.494;27.470;2023-04-27T11:29:24;101800.31;;;29.95;73.76
12801;BME280;6464;42.494;27.470;2023-04-27T11:31:51;101793.59;;;29.56;75.15
12801;BME280;6464;42.494;27.470;2023-04-27T11:34:20;101742.88;;;28.65;78.40
12801;BME280;6464;42.494;27.470;2023-04-27T11:36:56;101748.13;;;28.44;79.98
12801;BME280;6464;42.494;27.470;2023-04-27T11:39:25;101718.38;;;26.97;85.46
12801;BME280;6464;42.494;27.470;2023-04-27T11:41:54;101692.00;;;25.29;94.52
12801;BME280;6464;42.494;27.470;2023-04-27T11:44:25;101678.00;;;25.36;96.69
12801;BME280;6464;42.494;27.470;2023-04-27T11:46:52;101690.47;;;25.52;96.95
12801;BME280;6464;42.494;27.470;2023-04-27T11:49:20;101698.56;;;25.25;92.84
12801;BME280;6464;42.494;27.470;2023-04-27T11:51:47;101597.06;;;24.08;100.00
12801;BME280;6464;42.494;27.470;2023-04-27T11:54:13;101615.03;;;23.47;100.00
12801;BME280;6464;42.494;27.470;2023-04-27T11:56:41;101634.69;;;23.02;100.00
12801;BME280;6464;42.494;27.470;2023-04-27T11:59:20;101605.91;;;22.03;100.00
12801;BME280;6464;42.494;27.470;2023-04-27T12:01:48;101618.09;;;22.10;100.00
12801;BME280;6464;42.494;27.470;2023-04-27T12:04:16;101605.94;;;21.86;100.00
12801;BME280;6464;42.494;27.470;2023-04-27T12:06:45;101608.13;;;21.60;100.00
12801;BME280;6464;42.494;27.470;2023-04-27T12:09:12;101526.63;;;21.08;100.00
12801;BME280;6464;42.494;27.470;2023-04-27T12:11:39;101510.59;;;21.25;100.00
12801;BME280;6464;42.494;27.470;2023-04-27T12:14:06;101510.22;;;20.96;100.00
12801;BME280;6464;42.494;27.470;2023-04-27T12:16:34;101582.38;;;21.56;100.00
12801;BME280;6464;42.494;27.470;2023-04-27T12:19:02;101557.13;;;21.43;100.00
12801;BME280;6464;42.494;27.470;2023-04-27T12:21:29;101562.56;;;21.59;100.00
12801;BME280;6464;42.494;27.470;2023-04-27T12:23:56;101614.84;;;21.69;100.00
12801;BME280;6464;42.494;27.470;2023-04-27T12:26:23;101504.13;;;20.93;100.00
12801;BME280;6464;42.494;27.470;2023-04-27T12:28:51;101556.88;;;21.11;100.00
12801;BME280;6464;42.494;27.470;2023-04-27T12:31:18;101548.28;;;20.86;100.00
12801;BME280;6464;42.494;27.470;2023-04-27T12:33:50;101510.63;;;20.70;100.00
12801;BME280;6464;42.494;27.470;2023-04-27T12:36:18;101508.38;;;20.79;100.00
12801;BME280;6464;42.494;27.470;2023-04-27T12:38:45;101495.22;;;20.92;100.00
12801;BME280;6464;42.494;27.470;2023-04-27T12:41:12;101503.34;;;20.91;100.00
12801;BME280;6464;42.494;27.470;2023-04-27T12:43:39;101606.25;;;21.79;100.00
12801;BME280;6464;42.494;27.470;2023-04-27T12:46:08;101584.59;;;22.00;100.00
12801;BME280;6464;42.494;27.470;2023-04-27T12:48:35;101502.44;;;21.09;100.00
12801;BME280;6464;42.494;27.470;2023-04-27T12:51:04;101515.00;;;20.14;100.00
12801;BME280;6464;42.494;27.470;2023-04-27T12:53:32;101582.47;;;20.22;100.00
12801;BME280;6464;42.494;27.470;2023-04-27T12:56:02;101555.84;;;19.14;100.00
12801;BME280;6464;42.494;27.470;2023-04-27T12:58:30;101443.03;;;18.62;100.00
12801;BME280;6464;42.494;27.470;2023-04-27T13:00:57;101418.63;;;18.26;100.00
12801;BME280;6464;42.494;27.470;2023-04-27T13:03:25;101396.00;;;17.91;100.00
12801;BME280;6464;42.494;27.470;2023-04-27T13:05:53;101516.22;;;18.58;100.00
12801;BME280;6464;42.494;27.470;2023-04-27T13:11:41;101391.13;;;17.54;100.00
12801;BME280;6464;42.494;27.470;2023-04-27T13:14:12;101421.28;;;17.81;100.00
12801;BME280;6464;42.494;27.470;2023-04-27T13:16:41;101288.31;;;16.98;100.00
12801;BME280;6464;42.494;27.470;2023-04-27T13:19:09;101303.97;;;17.31;100.00
12801;BME280;6464;42.494;27.470;2023-04-27T13:21:39;101342.50;;;17.94;100.00
12801;BME280;6464;42.494;27.470;2023-04-27T13:24:15;101548.50;;;19.63;100.00
12801;BME280;6464;42.494;27.470;2023-04-27T13:26:50;101484.56;;;18.93;100.00
12801;BME280;6464;42.494;27.470;2023-04-27T13:29:19;101395.78;;;18.19;100.00
12801;BME280;6464;42.494;27.470;2023-04-27T13:31:50;101331.16;;;17.40;100.00
12801;BME280;6464;42.494;27.470;2023-04-27T13:34:19;101310.34;;;17.50;100.00
12801;BME280;6464;42.494;27.470;2023-04-27T13:36:46;101505.88;;;18.26;100.00
12801;BME280;6464;42.494;27.470;2023-04-27T13:39:16;101466.25;;;17.66;100.00
12801;BME280;6464;42.494;27.470;2023-04-27T13:41:43;101512.53;;;17.90;100.00
12801;BME280;6464;42.494;27.470;2023-04-27T13:44:12;101391.53;;;17.18;100.00
12801;BME280;6464;42.494;27.470;2023-04-27T13:46:40;101391.38;;;17.23;100.00
12801;BME280;6464;42.494;27.470;2023-04-27T13:49:08;101338.31;;;17.15;100.00
12801;BME280;6464;42.494;27.470;2023-04-27T13:51:40;101479.94;;;18.06;100.00
12801;BME280;6464;42.494;27.470;2023-04-27T13:54:07;101492.19;;;18.35;100.00
12801;BME280;6464;42.494;27.470;2023-04-27T13:56:35;101379.63;;;18.00;100.00
12801;BME280;6464;42.494;27.470;2023-04-27T13:59:04;101457.91;;;18.91;100.00
12801;BME280;6464;42.494;27.470;2023-04-27T14:01:37;101376.47;;;18.56;100.00
12801;BME280;6464;42.494;27.470;2023-04-27T14:04:06;101370.47;;;18.29;100.00
12801;BME280;6464;42.494;27.470;2023-04-27T14:06:34;101425.50;;;18.55;100.00
12801;BME280;6464;42.494;27.470;2023-04-27T14:09:02;101522.09;;;18.90;100.00
12801;BME280;6464;42.494;27.470;2023-04-27T14:11:32;101559.66;;;18.87;100.00
12801;BME280;6464;42.494;27.470;2023-04-27T14:14:00;101394.72;;;17.78;100.00
12801;BME280;6464;42.494;27.470;2023-04-27T14:16:32;101379.53;;;17.80;100.00
12801;BME280;6464;42.494;27.470;2023-04-27T14:19:03;101552.88;;;19.00;100.00
12801;BME280;6464;42.494;27.470;2023-04-27T14:21:31;101466.63;;;18.95;100.00
12801;BME280;6464;42.494;27.470;2023-04-27T14:23:58;101570.34;;;19.31;100.00
12801;BME280;6464;42.494;27.470;2023-04-27T14:26:27;101311.06;;;17.32;100.00
12801;BME280;6464;42.494;27.470;2023-04-27T14:28:55;101351.03;;;17.80;100.00
12801;BME280;6464;42.494;27.470;2023-04-27T14:31:25;101453.50;;;18.68;100.00
12801;BME280;6464;42.494;27.470;2023-04-27T14:33:54;101562.75;;;19.64;100.00
12801;BME280;6464;42.494;27.470;2023-04-27T14:36:28;101463.84;;;18.98;100.00
12801;BME280;6464;42.494;27.470;2023-04-27T14:38:57;101454.69;;;19.25;100.00
12801;BME280;6464;42.494;27.470;2023-04-27T14:41:28;101565.91;;;20.72;100.00
12801;BME280;6464;42.494;27.470;2023-04-27T14:43:55;101611.97;;;21.37;100.00
12801;BME280;6464;42.494;27.470;2023-04-27T14:46:23;101628.22;;;21.34;100.00
12801;BME280;6464;42.494;27.470;2023-04-27T14:48:53;101672.00;;;21.16;100.00
12801;BME280;6464;42.494;27.470;2023-04-27T14:51:28;101542.53;;;19.77;100.00
12801;BME280;6464;42.494;27.470;2023-04-27T14:53:58;101681.00;;;21.52;100.00
12801;BME280;6464;42.494;27.470;2023-04-27T14:56:28;101707.25;;;23.19;100.00
12801;BME280;6464;42.494;27.470;2023-04-27T14:58:55;101683.13;;;22.51;100.00
12801;BME280;6464;42.494;27.470;2023-04-27T15:01:22;101703.91;;;22.48;100.00
12801;BME280;6464;42.494;27.470;2023-04-27T15:03:49;101685.63;;;21.49;100.00
12801;BME280;6464;42.494;27.470;2023-04-27T15:06:20;101660.56;;;20.54;100.00
12801;BME280;6464;42.494;27.470;2023-04-27T15:08:50;101514.75;;;18.95;100.00
12801;BME280;6464;42.494;27.470;2023-04-27T15:11:18;101592.34;;;18.93;100.00
12801;BME280;6464;42.494;27.470;2023-04-27T15:13:51;101427.81;;;17.47;100.00
12801;BME280;6464;42.494;27.470;2023-04-27T15:16:20;101453.63;;;17.46;100.00
12801;BME280;6464;42.494;27.470;2023-04-27T15:18:57;101392.41;;;16.92;100.00
12801;BME280;6464;42.494;27.470;2023-04-27T15:21:26;101498.13;;;17.69;100.00
12801;BME280;6464;42.494;27.470;2023-04-27T15:23:56;101593.72;;;19.69;100.00
12801;BME280;6464;42.494;27.470;2023-04-27T15:26:27;101612.81;;;19.16;100.00
12801;BME280;6464;42.494;27.470;2023-04-27T15:28:56;101496.94;;;18.03;100.00
12801;BME280;6464;42.494;27.470;2023-04-27T15:31:26;101335.47;;;16.68;100.00
12801;BME280;6464;42.494;27.470;2023-04-27T15:33:55;101569.50;;;18.14;100.00
12801;BME280;6464;42.494;27.470;2023-04-27T15:36:22;101351.22;;;17.02;100.00
12801;BME280;6464;42.494;27.470;2023-04-27T15:38:51;101388.41;;;17.05;100.00
12801;BME280;6464;42.494;27.470;2023-04-27T15:41:23;101359.94;;;16.54;100.00
12801;BME280;6464;42.494;27.470;2023-04-27T15:43:52;101354.91;;;16.45;100.00
12801;BME280;6464;42.494;27.470;2023-04-27T15:46:20;101331.53;;;15.99;100.00
12801;BME280;6464;42.494;27.470;2023-04-27T15:48:47;101376.47;;;16.08;100.00
12801;BME280;6464;42.494;27.470;2023-04-27T15:51:15;101434.03;;;16.40;100.00
12801;BME280;6464;42.494;27.470;2023-04-27T15:53:46;101491.25;;;16.84;100.00
12801;BME280;6464;42.494;27.470;2023-04-27T15:56:15;101336.31;;;15.87;100.00
12801;BME280;6464;42.494;27.470;2023-04-27T15:58:46;101364.28;;;16.01;100.00
12801;BME280;6464;42.494;27.470;2023-04-27T16:01:14;101427.28;;;16.30;100.00
12801;BME280;6464;42.494;27.470;2023-04-27T16:03:41;101497.00;;;16.41;100.00
12801;BME280;6464;42.494;27.470;2023-04-27T16:06:09;101267.78;;;15.38;100.00
12801;BME280;6464;42.494;27.470;2023-04-27T16:08:36;101463.94;;;16.48;100.00
12801;BME280;6464;42.494;27.470;2023-04-27T16:11:05;101284.97;;;15.25;100.00
12801;BME280;6464;42.494;27.470;2023-04-27T16:13:32;101428.50;;;16.18;100.00
12801;BME280;6464;42.494;27.470;2023-04-27T16:16:01;101477.91;;;16.27;100.00
12801;BME280;6464;42.494;27.470;2023-04-27T16:18:29;101270.06;;;14.88;100.00
12801;BME280;6464;42.494;27.470;2023-04-27T16:20:59;101390.13;;;15.66;100.00
12801;BME280;6464;42.494;27.470;2023-04-27T16:23:29;101488.84;;;16.17;100.00
12801;BME280;6464;42.494;27.470;2023-04-27T16:25:56;101453.50;;;16.12;100.00
12801;BME280;6464;42.494;27.470;2023-04-27T16:28:24;101384.34;;;15.50;100.00
12801;BME280;6464;42.494;27.470;2023-04-27T16:30:52;101463.75;;;15.97;100.00
12801;BME280;6464;42.494;27.470;2023-04-27T16:33:21;101273.47;;;14.60;100.00
12801;BME280;6464;42.494;27.470;2023-04-27T16:35:51;101292.06;;;14.59;100.00
12801;BME280;6464;42.494;27.470;2023-04-27T16:38:19;101402.06;;;15.19;100.00
12801;BME280;6464;42.494;27.470;2023-04-27T16:40:48;101434.78;;;15.21;100.00
12801;BME280;6464;42.494;27.470;2023-04-27T16:43:17;101281.69;;;14.14;100.00
12801;BME280;6464;42.494;27.470;2023-04-27T16:45:45;101463.03;;;15.25;100.00
12801;BME280;6464;42.494;27.470;2023-04-27T16:48:12;101240.25;;;13.71;100.00
12801;BME280;6464;42.494;27.470;2023-04-27T16:50:43;101434.59;;;14.93;100.00
12801;BME280;6464;42.494;27.470;2023-04-27T16:53:11;101258.25;;;13.96;100.00
12801;BME280;6464;42.494;27.470;2023-04-27T16:55:44;101219.25;;;13.63;100.00
12801;BME280;6464;42.494;27.470;2023-04-27T16:58:12;101265.34;;;13.95;100.00
12801;BME280;6464;42.494;27.470;2023-04-27T17:00:49;101296.88;;;14.07;100.00
12801;BME280;6464;42.494;27.470;2023-04-27T17:03:16;101208.88;;;13.54;100.00
12801;BME280;6464;42.494;27.470;2023-04-27T17:05:48;101209.28;;;13.36;100.00
12801;BME280;6464;42.494;27.470;2023-04-27T17:08:18;101339.34;;;14.06;100.00
12801;BME280;6464;42.494;27.470;2023-04-27T17:10:49;101320.97;;;13.98;100.00
12801;BME280;6464;42.494;27.470;2023-04-27T17:13:17;101296.38;;;13.90;100.00
12801;BME280;6464;42.494;27.470;2023-04-27T17:15:46;101154.75;;;12.84;100.00
12801;BME280;6464;42.494;27.470;2023-04-27T17:18:19;101268.59;;;13.68;100.00
12801;BME280;6464;42.494;27.470;2023-04-27T17:20:50;101241.47;;;13.56;100.00
12801;BME280;6464;42.494;27.470;2023-04-27T17:23:18;101230.19;;;13.48;100.00
12801;BME280;6464;42.494;27.470;2023-04-27T17:25:46;101153.38;;;13.06;100.00